Time,TemperatureF,DewpointF,PressureIn,WindDirection,WindDirectionDegrees,WindSpeedMPH,WindSpeedGustMPH,Humidity,HourlyPrecipIn,Conditions,Clouds,dailyrainin,SoftwareType,DateUTC
2013-04-24 00:05:00,54.5,48.8,29.81,ESE,112,0.0,-999.0,81,-99.99,,,0.00,Acu-Link.com,2013-04-24 07:05:00,
2013-04-24 00:20:00,54.0,49.0,29.81,SW,225,0.0,-999.0,83,-99.99,,,0.00,Acu-Link.com,2013-04-24 07:20:00,
2013-04-24 01:50:00,50.5,45.8,29.79,SSE,157,0.0,-999.0,84,-99.99,,,0.00,Acu-Link.com,2013-04-24 08:50:00,
2013-04-24 02:05:00,50.2,45.6,29.78,South,180,0.0,-999.0,84,-99.99,,,0.00,Acu-Link.com,2013-04-24 09:05:00,
2013-04-24 02:20:00,49.8,45.5,29.77,SSE,157,0.0,-999.0,85,-99.99,,,0.00,Acu-Link.com,2013-04-24 09:20:00,
2013-04-24 02:35:00,49.6,45.0,29.77,SW,225,0.0,-999.0,84,-99.99,,,0.00,Acu-Link.com,2013-04-24 09:35:00,
2013-04-24 02:51:00,49.3,45.9,29.76,NE,45,0.0,-999.0,88,-99.99,,,0.00,Acu-Link.com,2013-04-24 09:51:00,
2013-04-24 03:06:00,49.1,45.7,29.75,North,0,0.0,-999.0,88,-99.99,,,0.00,Acu-Link.com,2013-04-24 10:06:00,
2013-04-24 03:21:00,48.7,45.6,29.75,North,0,0.0,-999.0,89,-99.99,,,0.00,Acu-Link.com,2013-04-24 10:21:00,
2013-04-24 03:37:00,48.7,46.8,29.74,North,0,0.0,-999.0,93,-99.99,,,0.00,Acu-Link.com,2013-04-24 10:37:00,
2013-04-24 03:52:00,48.2,46.3,29.75,North,0,0.0,-999.0,93,-99.99,,,0.00,Acu-Link.com,2013-04-24 10:52:00,
2013-04-24 04:38:00,46.9,44.4,29.74,NE,45,0.0,-999.0,91,-99.99,,,0.00,Acu-Link.com,2013-04-24 11:38:00,
2013-04-24 04:53:00,46.8,44.6,29.74,West,270,0.0,-999.0,92,-99.99,,,0.00,Acu-Link.com,2013-04-24 11:53:00,
2013-04-24 05:08:00,46.4,44.2,29.74,South,180,0.0,-999.0,92,-99.99,,,0.00,Acu-Link.com,2013-04-24 12:08:00,
2013-04-24 05:23:00,46.0,44.1,29.75,SSE,157,0.0,-999.0,93,-99.99,,,0.00,Acu-Link.com,2013-04-24 12:23:00,
2013-04-24 05:38:00,45.9,44.3,29.75,ENE,67,0.0,-999.0,94,-99.99,,,0.00,Acu-Link.com,2013-04-24 12:38:00,
2013-04-24 05:53:00,46.0,44.1,29.75,South,180,0.0,-999.0,93,-99.99,,,0.00,Acu-Link.com,2013-04-24 12:53:00,
2013-04-24 06:09:00,45.9,43.7,29.75,West,270,0.0,-999.0,92,-99.99,,,0.00,Acu-Link.com,2013-04-24 13:09:00,
2013-04-24 06:24:00,45.7,43.5,29.75,SSE,157,0.0,-999.0,92,-99.99,,,0.00,Acu-Link.com,2013-04-24 13:24:00,
2013-04-24 06:39:00,45.5,43.3,29.76,North,0,0.0,-999.0,92,-99.99,,,0.00,Acu-Link.com,2013-04-24 13:39:00,
2013-04-24 06:54:00,45.7,43.5,29.76,South,180,0.0,-999.0,92,-99.99,,,0.00,Acu-Link.com,2013-04-24 13:54:00,
2013-04-24 07:10:00,46.8,44.9,29.77,SE,135,0.0,-999.0,93,-99.99,,,0.00,Acu-Link.com,2013-04-24 14:10:00,
2013-04-24 07:25:00,48.2,46.3,29.77,NE,45,0.0,-999.0,93,-99.99,,,0.00,Acu-Link.com,2013-04-24 14:25:00,
2013-04-24 07:40:00,50.7,47.9,29.77,ENE,67,0.0,-999.0,90,-99.99,,,0.00,Acu-Link.com,2013-04-24 14:40:00,
2013-04-24 07:55:00,52.0,47.6,29.78,South,180,0.0,-999.0,85,-99.99,,,0.00,Acu-Link.com,2013-04-24 14:55:00,
2013-04-24 08:10:00,53.1,48.4,29.78,WNW,292,0.0,-999.0,84,-99.99,,,0.00,Acu-Link.com,2013-04-24 15:10:00,
2013-04-24 08:25:00,54.3,47.6,29.78,NNE,22,0.0,-999.0,78,-99.99,,,0.00,Acu-Link.com,2013-04-24 15:25:00,
2013-04-24 08:41:00,55.4,46.9,29.78,ESE,112,0.0,-999.0,73,-99.99,,,0.00,Acu-Link.com,2013-04-24 15:41:00,
2013-04-24 08:56:00,56.8,48.2,29.77,SSW,202,1.1,-999.0,73,-99.99,,,0.00,Acu-Link.com,2013-04-24 15:56:00,
2013-04-24 09:11:00,58.6,48.8,29.78,SSE,157,1.7,-999.0,70,-99.99,,,0.00,Acu-Link.com,2013-04-24 16:11:00,
2013-04-24 09:26:00,60.6,49.6,29.78,SSE,157,0.0,-999.0,67,-99.99,,,0.00,Acu-Link.com,2013-04-24 16:26:00,
2013-04-24 09:41:00,65.3,50.1,29.77,East,90,0.0,-999.0,58,-99.99,,,0.00,Acu-Link.com,2013-04-24 16:41:00,
2013-04-24 09:56:00,67.6,48.3,29.77,SE,135,0.0,-999.0,50,-99.99,,,0.00,Acu-Link.com,2013-04-24 16:56:00,
2013-04-24 10:11:00,68.9,47.3,29.77,ESE,112,1.7,-999.0,46,-99.99,,,0.00,Acu-Link.com,2013-04-24 17:11:00,
2013-04-24 10:26:00,71.8,49.3,29.76,South,180,0.0,-999.0,45,-99.99,,,0.00,Acu-Link.com,2013-04-24 17:26:00,
2013-04-24 10:42:00,72.3,47.9,29.77,West,270,0.0,-999.0,42,-99.99,,,0.00,Acu-Link.com,2013-04-24 17:42:00,
2013-04-24 10:57:00,72.5,47.4,29.76,SSW,202,1.7,-999.0,41,-99.99,,,0.00,Acu-Link.com,2013-04-24 17:57:00,
2013-04-24 11:12:00,73.2,48.1,29.75,NNE,22,0.0,-999.0,41,-99.99,,,0.00,Acu-Link.com,2013-04-24 18:12:00,
2013-04-24 11:27:00,74.7,48.8,29.76,WNW,292,1.1,-999.0,40,-99.99,,,0.00,Acu-Link.com,2013-04-24 18:27:00,
2013-04-24 11:42:00,74.8,48.2,29.76,NNE,22,2.2,-999.0,39,-99.99,,,0.00,Acu-Link.com,2013-04-24 18:42:00,
2013-04-24 11:58:00,77.5,51.3,29.75,SSE,157,0.0,-999.0,40,-99.99,,,0.00,Acu-Link.com,2013-04-24 18:58:00,
2013-04-24 12:13:00,77.4,49.8,29.75,South,180,1.7,-999.0,38,-99.99,,,0.00,Acu-Link.com,2013-04-24 19:13:00,
2013-04-24 12:28:00,77.9,51.6,29.75,WNW,292,1.7,-999.0,40,-99.99,,,0.00,Acu-Link.com,2013-04-24 19:28:00,
2013-04-24 12:46:00,77.9,51.6,29.74,SSW,202,2.2,-999.0,40,-99.99,,,0.00,Acu-Link.com,2013-04-24 19:46:00,
2013-04-24 13:01:00,78.1,54.4,29.74,South,180,0.0,-999.0,44,-99.99,,,0.00,Acu-Link.com,2013-04-24 20:01:00,
2013-04-24 13:16:00,78.4,54.0,29.74,NNE,22,2.7,-999.0,43,-99.99,,,0.00,Acu-Link.com,2013-04-24 20:16:00,
2013-04-24 13:31:00,78.4,54.7,29.73,SSE,157,1.7,-999.0,44,-99.99,,,0.00,Acu-Link.com,2013-04-24 20:31:00,
2013-04-24 13:46:00,78.4,55.9,29.73,ESE,112,1.7,-999.0,46,-99.99,,,0.00,Acu-Link.com,2013-04-24 20:46:00,
2013-04-24 14:01:00,79.2,56.0,29.73,ESE,112,1.1,-999.0,45,-99.99,,,0.00,Acu-Link.com,2013-04-24 21:01:00,
2013-04-24 14:17:00,78.6,56.1,29.73,SW,225,1.7,-999.0,46,-99.99,,,0.00,Acu-Link.com,2013-04-24 21:17:00,
2013-04-24 14:32:00,78.4,57.1,29.73,SE,135,3.2,-999.0,48,-99.99,,,0.00,Acu-Link.com,2013-04-24 21:32:00,
2013-04-24 14:47:00,78.3,56.4,29.73,NNW,337,1.7,-999.0,47,-99.99,,,0.00,Acu-Link.com,2013-04-24 21:47:00,
2013-04-24 15:03:00,77.0,55.8,29.72,West,270,3.2,-999.0,48,-99.99,,,0.00,Acu-Link.com,2013-04-24 22:03:00,
2013-04-24 15:18:00,77.0,55.8,29.72,WNW,292,2.7,-999.0,48,-99.99,,,0.00,Acu-Link.com,2013-04-24 22:18:00,
2013-04-24 15:33:00,75.7,55.2,29.71,South,180,3.7,-999.0,49,-99.99,,,0.00,Acu-Link.com,2013-04-24 22:33:00,
2013-04-24 15:49:00,74.8,55.4,29.71,NW,315,1.7,-999.0,51,-99.99,,,0.00,Acu-Link.com,2013-04-24 22:49:00,
2013-04-24 16:04:00,77.4,56.2,29.71,WNW,292,2.2,-999.0,48,-99.99,,,0.00,Acu-Link.com,2013-04-24 23:04:00,
2013-04-24 16:19:00,75.6,56.7,29.71,West,270,0.0,-999.0,52,-99.99,,,0.00,Acu-Link.com,2013-04-24 23:19:00,
2013-04-24 16:34:00,74.1,55.9,29.71,North,0,2.2,-999.0,53,-99.99,,,0.00,Acu-Link.com,2013-04-24 23:34:00,
2013-04-24 16:50:00,72.5,55.4,29.72,WSW,247,1.7,-999.0,55,-99.99,,,0.00,Acu-Link.com,2013-04-24 23:50:00,
2013-04-24 17:05:00,71.4,54.9,29.72,North,0,2.2,-999.0,56,-99.99,,,0.00,Acu-Link.com,2013-04-25 00:05:00,
2013-04-24 17:20:00,70.9,55.4,29.72,East,90,3.2,-999.0,58,-99.99,,,0.00,Acu-Link.com,2013-04-25 00:20:00,
2013-04-24 17:36:00,69.3,54.8,29.72,West,270,1.1,-999.0,60,-99.99,,,0.00,Acu-Link.com,2013-04-25 00:36:00,
2013-04-24 17:52:00,68.2,54.7,29.73,NW,315,4.2,-999.0,62,-99.99,,,0.00,Acu-Link.com,2013-04-25 00:52:00,
2013-04-24 18:29:00,63.3,53.3,29.73,NNW,337,4.2,-999.0,70,-99.99,,,0.00,Acu-Link.com,2013-04-25 01:29:00,
2013-04-24 18:48:00,62.6,53.4,29.74,West,270,2.2,-999.0,72,-99.99,,,0.00,Acu-Link.com,2013-04-25 01:48:00,
2013-04-24 19:04:00,61.2,52.8,29.76,WSW,247,1.7,-999.0,74,-99.99,,,0.00,Acu-Link.com,2013-04-25 02:04:00,
2013-04-24 19:29:00,60.6,53.0,29.76,NNE,22,2.2,-999.0,76,-99.99,,,0.00,Acu-Link.com,2013-04-25 02:29:00,
2013-04-24 19:44:00,58.5,52.7,29.76,NNE,22,1.1,-999.0,81,-99.99,,,0.00,Acu-Link.com,2013-04-25 02:44:00,
2013-04-24 19:59:00,57.6,52.8,29.77,ESE,112,1.1,-999.0,84,-99.99,,,0.00,Acu-Link.com,2013-04-25 02:59:00,
2013-04-24 20:14:00,56.7,52.2,29.78,WSW,247,1.1,-999.0,85,-99.99,,,0.00,Acu-Link.com,2013-04-25 03:14:00,
2013-04-24 20:29:00,56.1,52.0,29.79,NE,45,1.1,-999.0,86,-99.99,,,0.00,Acu-Link.com,2013-04-25 03:29:00,
2013-04-24 20:44:00,55.4,51.9,29.80,South,180,0.0,-999.0,88,-99.99,,,0.00,Acu-Link.com,2013-04-25 03:44:00,
2013-04-24 20:59:00,54.9,51.7,29.81,North,0,2.2,-999.0,89,-99.99,,,0.00,Acu-Link.com,2013-04-25 03:59:00,
2013-04-24 21:14:00,54.5,51.6,29.83,WNW,292,1.1,-999.0,90,-99.99,,,0.00,Acu-Link.com,2013-04-25 04:14:00,
2013-04-24 21:31:00,54.3,51.7,29.83,East,90,0.0,-999.0,91,-99.99,,,0.00,Acu-Link.com,2013-04-25 04:31:00,
2013-04-24 21:52:00,53.6,51.3,29.84,East,90,0.0,-999.0,92,-99.99,,,0.00,Acu-Link.com,2013-04-25 04:52:00,
2013-04-24 22:08:00,53.2,51.2,29.85,NNE,22,1.1,-999.0,93,-99.99,,,0.00,Acu-Link.com,2013-04-25 05:08:00,
2013-04-24 22:23:00,53.1,51.4,29.86,NE,45,1.7,-999.0,94,-99.99,,,0.00,Acu-Link.com,2013-04-25 05:23:00,
2013-04-24 22:38:00,52.9,51.5,29.86,WSW,247,1.1,-999.0,95,-99.99,,,0.00,Acu-Link.com,2013-04-25 05:38:00,
2013-04-24 22:53:00,52.7,51.6,29.86,NNW,337,0.0,-999.0,96,-99.99,,,0.00,Acu-Link.com,2013-04-25 05:53:00,
2013-04-24 23:08:00,52.5,51.7,29.85,SSW,202,0.0,-999.0,97,-99.99,,,0.00,Acu-Link.com,2013-04-25 06:08:00,
2013-04-24 23:23:00,52.3,51.5,29.85,NNW,337,1.1,-999.0,97,-99.99,,,0.00,Acu-Link.com,2013-04-25 06:23:00,
2013-04-24 23:38:00,52.3,51.5,29.85,NNW,337,0.0,-999.0,97,-99.99,,,0.00,Acu-Link.com,2013-04-25 06:38:00,
2013-04-24 23:53:00,52.0,51.5,29.84,NW,315,0.0,-999.0,98,-99.99,,,0.00,Acu-Link.com,2013-04-25 06:53:00,